sensor_id;sensor_type;location;lat;lon;timestamp;temperature;humidity
40289;DHT22;28991;52.028;5.526;2023-10-08T00:01:52;21.50;65.60
40289;DHT22;28991;52.028;5.526;2023-10-08T00:04:21;21.60;65.70
40289;DHT22;28991;52.028;5.526;2023-10-08T00:06:46;21.60;65.70
40289;DHT22;28991;52.028;5.526;2023-10-08T00:09:12;21.60;65.70
40289;DHT22;28991;52.028;5.526;2023-10-08T00:11:40;21.60;65.70
40289;DHT22;28991;52.028;5.526;2023-10-08T00:14:06;21.60;65.70
40289;DHT22;28991;52.028;5.526;2023-10-08T00:16:36;21.60;65.70
40289;DHT22;28991;52.028;5.526;2023-10-08T00:19:05;21.60;65.70
40289;DHT22;28991;52.028;5.526;2023-10-08T00:21:34;21.50;65.70
40289;DHT22;28991;52.028;5.526;2023-10-08T00:24:01;21.60;65.70
40289;DHT22;28991;52.028;5.526;2023-10-08T00:26:31;21.60;65.70
40289;DHT22;28991;52.028;5.526;2023-10-08T00:29:02;21.50;65.70
40289;DHT22;28991;52.028;5.526;2023-10-08T00:31:47;21.60;65.80
40289;DHT22;28991;52.028;5.526;2023-10-08T00:34:18;21.60;65.80
40289;DHT22;28991;52.028;5.526;2023-10-08T00:36:46;21.60;65.80
40289;DHT22;28991;52.028;5.526;2023-10-08T00:39:13;21.60;65.80
40289;DHT22;28991;52.028;5.526;2023-10-08T00:41:44;21.60;65.80
40289;DHT22;28991;52.028;5.526;2023-10-08T00:44:12;21.60;65.80
40289;DHT22;28991;52.028;5.526;2023-10-08T00:46:40;21.50;65.70
40289;DHT22;28991;52.028;5.526;2023-10-08T00:49:13;21.50;65.70
40289;DHT22;28991;52.028;5.526;2023-10-08T00:51:59;21.50;65.70
40289;DHT22;28991;52.028;5.526;2023-10-08T00:54:45;21.50;65.70
40289;DHT22;28991;52.028;5.526;2023-10-08T00:57:26;21.50;65.70
40289;DHT22;28991;52.028;5.526;2023-10-08T00:59:52;21.50;65.70
40289;DHT22;28991;52.028;5.526;2023-10-08T01:02:26;21.60;65.80
40289;DHT22;28991;52.028;5.526;2023-10-08T01:05:08;21.50;65.70
40289;DHT22;28991;52.028;5.526;2023-10-08T01:07:35;21.50;65.70
40289;DHT22;28991;52.028;5.526;2023-10-08T01:10:01;21.50;66.30
40289;DHT22;28991;52.028;5.526;2023-10-08T01:12:35;21.50;65.70
40289;DHT22;28991;52.028;5.526;2023-10-08T01:15:10;21.60;65.80
40289;DHT22;28991;52.028;5.526;2023-10-08T01:17:44;21.60;65.80
40289;DHT22;28991;52.028;5.526;2023-10-08T01:20:22;21.80;65.90
40289;DHT22;28991;52.028;5.526;2023-10-08T01:23:08;21.50;65.80
40289;DHT22;28991;52.028;5.526;2023-10-08T01:25:37;21.60;65.90
40289;DHT22;28991;52.028;5.526;2023-10-08T01:28:04;21.50;65.80
40289;DHT22;28991;52.028;5.526;2023-10-08T01:30:48;21.50;65.80
40289;DHT22;28991;52.028;5.526;2023-10-08T01:33:16;21.50;65.70
40289;DHT22;28991;52.028;5.526;2023-10-08T01:35:46;21.50;65.80
40289;DHT22;28991;52.028;5.526;2023-10-08T01:38:14;21.50;65.80
40289;DHT22;28991;52.028;5.526;2023-10-08T01:40:43;21.50;65.80
40289;DHT22;28991;52.028;5.526;2023-10-08T01:43:09;21.50;65.80
40289;DHT22;28991;52.028;5.526;2023-10-08T01:45:37;21.50;65.80
40289;DHT22;28991;52.028;5.526;2023-10-08T01:48:06;21.50;65.80
40289;DHT22;28991;52.028;5.526;2023-10-08T01:50:35;21.60;65.80
40289;DHT22;28991;52.028;5.526;2023-10-08T01:53:00;21.50;65.80
40289;DHT22;28991;52.028;5.526;2023-10-08T01:55:26;21.50;65.80
40289;DHT22;28991;52.028;5.526;2023-10-08T01:57:52;21.50;65.80
40289;DHT22;28991;52.028;5.526;2023-10-08T02:00:18;21.50;65.80
40289;DHT22;28991;52.028;5.526;2023-10-08T02:02:51;21.50;65.90
40289;DHT22;28991;52.028;5.526;2023-10-08T02:05:17;21.50;65.90
40289;DHT22;28991;52.028;5.526;2023-10-08T02:07:45;21.50;65.90
40289;DHT22;28991;52.028;5.526;2023-10-08T02:10:11;21.40;65.80
40289;DHT22;28991;52.028;5.526;2023-10-08T02:12:38;21.50;65.90
40289;DHT22;28991;52.028;5.526;2023-10-08T02:15:04;21.50;65.80
40289;DHT22;28991;52.028;5.526;2023-10-08T02:17:29;21.50;65.80
40289;DHT22;28991;52.028;5.526;2023-10-08T02:19:56;21.50;65.80
40289;DHT22;28991;52.028;5.526;2023-10-08T02:22:22;21.50;65.80
40289;DHT22;28991;52.028;5.526;2023-10-08T02:24:47;21.50;65.80
40289;DHT22;28991;52.028;5.526;2023-10-08T02:27:16;21.50;65.80
40289;DHT22;28991;52.028;5.526;2023-10-08T02:29:42;21.50;65.90
40289;DHT22;28991;52.028;5.526;2023-10-08T02:32:08;21.40;65.80
40289;DHT22;28991;52.028;5.526;2023-10-08T02:34:33;21.50;65.90
40289;DHT22;28991;52.028;5.526;2023-10-08T02:37:01;21.50;65.90
40289;DHT22;28991;52.028;5.526;2023-10-08T02:39:29;21.50;66.50
40289;DHT22;28991;52.028;5.526;2023-10-08T02:41:56;21.50;65.80
40289;DHT22;28991;52.028;5.526;2023-10-08T02:44:25;21.50;65.80
40289;DHT22;28991;52.028;5.526;2023-10-08T02:46:51;21.50;65.90
40289;DHT22;28991;52.028;5.526;2023-10-08T02:49:19;21.50;65.90
40289;DHT22;28991;52.028;5.526;2023-10-08T02:51:54;21.50;65.90
40289;DHT22;28991;52.028;5.526;2023-10-08T02:54:21;21.40;65.80
40289;DHT22;28991;52.028;5.526;2023-10-08T02:56:52;21.50;65.90
40289;DHT22;28991;52.028;5.526;2023-10-08T02:59:23;21.50;65.90
40289;DHT22;28991;52.028;5.526;2023-10-08T03:01:50;21.40;65.80
40289;DHT22;28991;52.028;5.526;2023-10-08T03:04:21;21.50;65.90
40289;DHT22;28991;52.028;5.526;2023-10-08T03:06:49;21.60;65.90
40289;DHT22;28991;52.028;5.526;2023-10-08T03:09:23;21.50;65.90
40289;DHT22;28991;52.028;5.526;2023-10-08T03:11:51;21.50;65.90
40289;DHT22;28991;52.028;5.526;2023-10-08T03:14:18;21.40;65.80
40289;DHT22;28991;52.028;5.526;2023-10-08T03:16:54;21.50;65.90
40289;DHT22;28991;52.028;5.526;2023-10-08T03:19:23;21.50;65.90
40289;DHT22;28991;52.028;5.526;2023-10-08T03:21:50;21.50;65.90
40289;DHT22;28991;52.028;5.526;2023-10-08T03:24:19;21.50;65.90
40289;DHT22;28991;52.028;5.526;2023-10-08T03:27:00;21.50;65.90
40289;DHT22;28991;52.028;5.526;2023-10-08T03:29:52;21.90;66.10
40289;DHT22;28991;52.028;5.526;2023-10-08T03:32:20;21.40;65.90
40289;DHT22;28991;52.028;5.526;2023-10-08T03:34:52;21.50;65.90
40289;DHT22;28991;52.028;5.526;2023-10-08T03:37:21;21.40;65.90
40289;DHT22;28991;52.028;5.526;2023-10-08T03:39:54;21.40;65.90
40289;DHT22;28991;52.028;5.526;2023-10-08T03:42:27;21.50;65.90
40289;DHT22;28991;52.028;5.526;2023-10-08T03:44:59;21.30;65.80
40289;DHT22;28991;52.028;5.526;2023-10-08T03:47:36;21.30;65.80
40289;DHT22;28991;52.028;5.526;2023-10-08T03:50:06;21.40;65.90
40289;DHT22;28991;52.028;5.526;2023-10-08T03:52:34;21.40;65.90
40289;DHT22;28991;52.028;5.526;2023-10-08T03:55:03;21.50;65.90
40289;DHT22;28991;52.028;5.526;2023-10-08T03:57:47;21.50;65.90
40289;DHT22;28991;52.028;5.526;2023-10-08T04:00:22;21.40;65.90
40289;DHT22;28991;52.028;5.526;2023-10-08T04:02:56;21.40;65.90
40289;DHT22;28991;52.028;5.526;2023-10-08T04:05:26;21.50;65.90
40289;DHT22;28991;52.028;5.526;2023-10-08T04:08:09;21.50;65.90
40289;DHT22;28991;52.028;5.526;2023-10-08T04:10:50;21.40;65.90
40289;DHT22;28991;52.028;5.526;2023-10-08T04:13:38;21.40;65.90
40289;DHT22;28991;52.028;5.526;2023-10-08T04:16:10;21.40;65.90
40289;DHT22;28991;52.028;5.526;2023-10-08T04:18:36;21.40;65.90
40289;DHT22;28991;52.028;5.526;2023-10-08T04:21:06;21.40;65.90
40289;DHT22;28991;52.028;5.526;2023-10-08T04:23:39;21.50;66.00
40289;DHT22;28991;52.028;5.526;2023-10-08T04:26:05;21.40;65.90
40289;DHT22;28991;52.028;5.526;2023-10-08T04:28:32;21.40;65.90
40289;DHT22;28991;52.028;5.526;2023-10-08T04:31:00;21.60;66.00
40289;DHT22;28991;52.028;5.526;2023-10-08T04:33:40;21.40;66.00
40289;DHT22;28991;52.028;5.526;2023-10-08T04:36:06;21.40;66.00
40289;DHT22;28991;52.028;5.526;2023-10-08T04:38:33;21.40;65.90
40289;DHT22;28991;52.028;5.526;2023-10-08T04:41:05;21.40;65.90
40289;DHT22;28991;52.028;5.526;2023-10-08T04:43:35;21.40;65.90
40289;DHT22;28991;52.028;5.526;2023-10-08T04:46:03;21.40;65.90
40289;DHT22;28991;52.028;5.526;2023-10-08T04:48:48;21.40;66.50
40289;DHT22;28991;52.028;5.526;2023-10-08T04:51:17;21.40;65.90
40289;DHT22;28991;52.028;5.526;2023-10-08T04:53:44;21.40;65.90
40289;DHT22;28991;52.028;5.526;2023-10-08T04:56:11;21.40;66.00
40289;DHT22;28991;52.028;5.526;2023-10-08T04:58:44;21.40;65.90
40289;DHT22;28991;52.028;5.526;2023-10-08T05:01:14;21.40;65.90
40289;DHT22;28991;52.028;5.526;2023-10-08T05:03:54;21.40;66.00
40289;DHT22;28991;52.028;5.526;2023-10-08T05:06:27;21.40;66.10
40289;DHT22;28991;52.028;5.526;2023-10-08T05:09:12;21.40;66.00
40289;DHT22;28991;52.028;5.526;2023-10-08T05:11:39;21.40;66.00
40289;DHT22;28991;52.028;5.526;2023-10-08T05:14:21;21.40;66.00
40289;DHT22;28991;52.028;5.526;2023-10-08T05:17:00;21.40;66.00
40289;DHT22;28991;52.028;5.526;2023-10-08T05:19:29;21.40;66.00
40289;DHT22;28991;52.028;5.526;2023-10-08T05:22:10;21.40;66.00
40289;DHT22;28991;52.028;5.526;2023-10-08T05:24:55;21.40;66.00
40289;DHT22;28991;52.028;5.526;2023-10-08T05:27:53;21.40;65.90
40289;DHT22;28991;52.028;5.526;2023-10-08T05:30:26;21.60;66.10
40289;DHT22;28991;52.028;5.526;2023-10-08T05:33:08;21.40;66.00
40289;DHT22;28991;52.028;5.526;2023-10-08T05:35:45;21.40;66.00
40289;DHT22;28991;52.028;5.526;2023-10-08T05:38:16;21.40;66.00
40289;DHT22;28991;52.028;5.526;2023-10-08T05:40:49;21.40;66.00
40289;DHT22;28991;52.028;5.526;2023-10-08T05:43:37;21.40;66.00
40289;DHT22;28991;52.028;5.526;2023-10-08T05:46:04;21.40;66.00
40289;DHT22;28991;52.028;5.526;2023-10-08T05:48:56;21.40;66.00
40289;DHT22;28991;52.028;5.526;2023-10-08T05:51:32;21.40;66.00
40289;DHT22;28991;52.028;5.526;2023-10-08T05:54:13;21.40;66.00
40289;DHT22;28991;52.028;5.526;2023-10-08T05:56:59;21.40;66.00
40289;DHT22;28991;52.028;5.526;2023-10-08T05:59:42;21.40;66.00
40289;DHT22;28991;52.028;5.526;2023-10-08T06:02:24;21.40;66.10
40289;DHT22;28991;52.028;5.526;2023-10-08T06:05:09;21.40;66.00
40289;DHT22;28991;52.028;5.526;2023-10-08T06:07:42;21.40;66.10
40289;DHT22;28991;52.028;5.526;2023-10-08T06:10:14;21.40;66.00
40289;DHT22;28991;52.028;5.526;2023-10-08T06:13:05;21.40;66.00
40289;DHT22;28991;52.028;5.526;2023-10-08T06:15:57;21.40;66.00
40289;DHT22;28991;52.028;5.526;2023-10-08T06:18:30;21.40;66.00
40289;DHT22;28991;52.028;5.526;2023-10-08T06:20:57;21.30;66.00
40289;DHT22;28991;52.028;5.526;2023-10-08T06:23:27;21.40;66.00
40289;DHT22;28991;52.028;5.526;2023-10-08T06:25:55;21.30;66.00
40289;DHT22;28991;52.028;5.526;2023-10-08T06:28:31;21.40;66.00
40289;DHT22;28991;52.028;5.526;2023-10-08T06:30:58;21.40;66.00
40289;DHT22;28991;52.028;5.526;2023-10-08T06:33:24;21.40;66.00
40289;DHT22;28991;52.028;5.526;2023-10-08T06:35:59;21.40;66.00
40289;DHT22;28991;52.028;5.526;2023-10-08T06:38:32;21.40;66.00
40289;DHT22;28991;52.028;5.526;2023-10-08T06:41:03;21.40;65.90
40289;DHT22;28991;52.028;5.526;2023-10-08T06:43:36;21.40;65.70
40289;DHT22;28991;52.028;5.526;2023-10-08T06:46:03;21.30;65.40
40289;DHT22;28991;52.028;5.526;2023-10-08T06:48:29;21.30;65.50
40289;DHT22;28991;52.028;5.526;2023-10-08T06:50:55;21.30;64.60
40289;DHT22;28991;52.028;5.526;2023-10-08T06:53:22;21.30;64.40
40289;DHT22;28991;52.028;5.526;2023-10-08T06:55:49;21.20;64.50
40289;DHT22;28991;52.028;5.526;2023-10-08T06:58:22;21.30;63.80
40289;DHT22;28991;52.028;5.526;2023-10-08T07:00:48;21.20;63.50
40289;DHT22;28991;52.028;5.526;2023-10-08T07:03:15;21.20;63.20
40289;DHT22;28991;52.028;5.526;2023-10-08T07:05:44;21.20;63.00
40289;DHT22;28991;52.028;5.526;2023-10-08T07:08:22;21.20;62.90
40289;DHT22;28991;52.028;5.526;2023-10-08T07:10:49;21.20;62.60
40289;DHT22;28991;52.028;5.526;2023-10-08T07:13:15;21.20;62.40
40289;DHT22;28991;52.028;5.526;2023-10-08T07:15:46;21.20;62.30
40289;DHT22;28991;52.028;5.526;2023-10-08T07:18:12;21.20;62.20
40289;DHT22;28991;52.028;5.526;2023-10-08T07:20:45;21.20;61.90
40289;DHT22;28991;52.028;5.526;2023-10-08T07:23:11;21.20;61.80
40289;DHT22;28991;52.028;5.526;2023-10-08T07:26:00;21.20;61.80
40289;DHT22;28991;52.028;5.526;2023-10-08T07:28:45;21.20;61.60
40289;DHT22;28991;52.028;5.526;2023-10-08T07:31:18;21.20;61.50
40289;DHT22;28991;52.028;5.526;2023-10-08T07:33:48;21.10;61.30
40289;DHT22;28991;52.028;5.526;2023-10-08T07:36:21;21.20;61.30
40289;DHT22;28991;52.028;5.526;2023-10-08T07:38:46;21.10;61.20
40289;DHT22;28991;52.028;5.526;2023-10-08T07:41:13;21.20;61.00
40289;DHT22;28991;52.028;5.526;2023-10-08T07:43:41;21.20;61.10
40289;DHT22;28991;52.028;5.526;2023-10-08T07:46:11;21.20;61.00
40289;DHT22;28991;52.028;5.526;2023-10-08T07:48:39;21.10;60.90
40289;DHT22;28991;52.028;5.526;2023-10-08T07:51:08;21.10;60.80
40289;DHT22;28991;52.028;5.526;2023-10-08T07:53:33;21.20;60.80
40289;DHT22;28991;52.028;5.526;2023-10-08T07:56:07;21.20;60.70
40289;DHT22;28991;52.028;5.526;2023-10-08T07:58:34;21.10;60.60
40289;DHT22;28991;52.028;5.526;2023-10-08T08:01:07;21.20;60.60
40289;DHT22;28991;52.028;5.526;2023-10-08T08:03:34;21.10;60.40
40289;DHT22;28991;52.028;5.526;2023-10-08T08:06:02;21.20;60.60
40289;DHT22;28991;52.028;5.526;2023-10-08T08:08:40;21.20;60.40
40289;DHT22;28991;52.028;5.526;2023-10-08T08:11:06;21.20;60.40
40289;DHT22;28991;52.028;5.526;2023-10-08T08:13:38;21.10;60.20
40289;DHT22;28991;52.028;5.526;2023-10-08T08:16:04;21.20;60.20
40289;DHT22;28991;52.028;5.526;2023-10-08T08:18:46;21.20;60.10
40289;DHT22;28991;52.028;5.526;2023-10-08T08:21:13;21.20;60.10
40289;DHT22;28991;52.028;5.526;2023-10-08T08:23:46;21.20;60.00
40289;DHT22;28991;52.028;5.526;2023-10-08T08:26:24;21.10;59.90
40289;DHT22;28991;52.028;5.526;2023-10-08T08:29:02;21.20;59.60
40289;DHT22;28991;52.028;5.526;2023-10-08T08:31:28;21.10;59.70
40289;DHT22;28991;52.028;5.526;2023-10-08T08:33:58;21.20;59.70
40289;DHT22;28991;52.028;5.526;2023-10-08T08:36:29;21.20;59.70
40289;DHT22;28991;52.028;5.526;2023-10-08T08:38:57;21.20;59.50
40289;DHT22;28991;52.028;5.526;2023-10-08T08:41:23;21.10;59.40
40289;DHT22;28991;52.028;5.526;2023-10-08T08:43:50;21.10;59.40
40289;DHT22;28991;52.028;5.526;2023-10-08T08:46:30;21.20;59.40
40289;DHT22;28991;52.028;5.526;2023-10-08T08:49:02;21.20;59.40
40289;DHT22;28991;52.028;5.526;2023-10-08T08:51:29;21.20;59.40
40289;DHT22;28991;52.028;5.526;2023-10-08T08:53:55;21.10;59.30
40289;DHT22;28991;52.028;5.526;2023-10-08T08:56:21;21.10;59.40
40289;DHT22;28991;52.028;5.526;2023-10-08T08:58:49;21.20;59.40
40289;DHT22;28991;52.028;5.526;2023-10-08T09:01:16;21.10;59.20
40289;DHT22;28991;52.028;5.526;2023-10-08T09:03:43;21.20;59.30
40289;DHT22;28991;52.028;5.526;2023-10-08T09:06:12;21.10;59.30
40289;DHT22;28991;52.028;5.526;2023-10-08T09:08:38;21.10;59.20
40289;DHT22;28991;52.028;5.526;2023-10-08T09:11:08;21.10;59.30
40289;DHT22;28991;52.028;5.526;2023-10-08T09:13:34;21.20;59.40
40289;DHT22;28991;52.028;5.526;2023-10-08T09:18:32;21.10;59.20
40289;DHT22;28991;52.028;5.526;2023-10-08T09:21:07;21.20;59.30
40289;DHT22;28991;52.028;5.526;2023-10-08T09:23:39;21.10;59.20
40289;DHT22;28991;52.028;5.526;2023-10-08T09:26:09;21.50;59.50
40289;DHT22;28991;52.028;5.526;2023-10-08T09:28:34;21.10;59.30
40289;DHT22;28991;52.028;5.526;2023-10-08T09:31:04;21.20;59.40
40289;DHT22;28991;52.028;5.526;2023-10-08T09:33:31;21.10;59.40
40289;DHT22;28991;52.028;5.526;2023-10-08T09:35:58;21.10;59.40
40289;DHT22;28991;52.028;5.526;2023-10-08T09:38:28;21.20;59.60
40289;DHT22;28991;52.028;5.526;2023-10-08T09:40:55;21.10;59.50
40289;DHT22;28991;52.028;5.526;2023-10-08T09:43:23;21.10;59.60
40289;DHT22;28991;52.028;5.526;2023-10-08T09:45:57;21.10;59.60
40289;DHT22;28991;52.028;5.526;2023-10-08T09:48:26;21.10;59.60
40289;DHT22;28991;52.028;5.526;2023-10-08T09:50:53;21.10;59.70
40289;DHT22;28991;52.028;5.526;2023-10-08T09:54:28;21.10;59.80
40289;DHT22;28991;52.028;5.526;2023-10-08T09:56:22;21.10;59.90
40289;DHT22;28991;52.028;5.526;2023-10-08T09:58:50;21.10;60.00
40289;DHT22;28991;52.028;5.526;2023-10-08T10:01:19;21.10;60.00
40289;DHT22;28991;52.028;5.526;2023-10-08T10:03:45;21.10;60.10
40289;DHT22;28991;52.028;5.526;2023-10-08T10:06:13;21.10;60.20
40289;DHT22;28991;52.028;5.526;2023-10-08T10:08:41;21.10;60.20
40289;DHT22;28991;52.028;5.526;2023-10-08T10:11:06;21.00;60.20
40289;DHT22;28991;52.028;5.526;2023-10-08T10:13:39;21.10;60.40
40289;DHT22;28991;52.028;5.526;2023-10-08T10:16:05;21.10;60.40
40289;DHT22;28991;52.028;5.526;2023-10-08T10:18:34;21.10;60.40
40289;DHT22;28991;52.028;5.526;2023-10-08T10:23:39;21.10;60.50
40289;DHT22;28991;52.028;5.526;2023-10-08T10:26:27;21.10;60.60
40289;DHT22;28991;52.028;5.526;2023-10-08T10:31:50;21.10;60.60
40289;DHT22;28991;52.028;5.526;2023-10-08T10:34:21;21.10;60.70
40289;DHT22;28991;52.028;5.526;2023-10-08T10:36:49;21.10;60.70
40289;DHT22;28991;52.028;5.526;2023-10-08T10:39:17;21.10;60.70
40289;DHT22;28991;52.028;5.526;2023-10-08T10:41:47;21.10;60.70
40289;DHT22;28991;52.028;5.526;2023-10-08T10:44:16;21.10;60.60
40289;DHT22;28991;52.028;5.526;2023-10-08T10:46:43;21.10;60.60
40289;DHT22;28991;52.028;5.526;2023-10-08T10:49:09;21.10;61.10
40289;DHT22;28991;52.028;5.526;2023-10-08T10:51:48;21.10;60.50
40289;DHT22;28991;52.028;5.526;2023-10-08T10:54:16;21.10;60.40
40289;DHT22;28991;52.028;5.526;2023-10-08T10:56:53;21.10;60.40
40289;DHT22;28991;52.028;5.526;2023-10-08T10:59:34;21.00;60.20
40289;DHT22;28991;52.028;5.526;2023-10-08T11:02:06;21.10;60.20
40289;DHT22;28991;52.028;5.526;2023-10-08T11:04:47;21.10;60.30
40289;DHT22;28991;52.028;5.526;2023-10-08T11:07:20;21.30;60.50
40289;DHT22;28991;52.028;5.526;2023-10-08T11:09:50;21.10;60.40
40289;DHT22;28991;52.028;5.526;2023-10-08T11:12:18;21.10;60.40
40289;DHT22;28991;52.028;5.526;2023-10-08T11:14:48;21.10;60.40
40289;DHT22;28991;52.028;5.526;2023-10-08T11:17:22;21.20;60.40
40289;DHT22;28991;52.028;5.526;2023-10-08T11:19:48;21.20;60.40
40289;DHT22;28991;52.028;5.526;2023-10-08T11:22:14;21.40;60.60
40289;DHT22;28991;52.028;5.526;2023-10-08T11:24:45;21.20;60.40
40289;DHT22;28991;52.028;5.526;2023-10-08T11:27:16;21.20;60.40
40289;DHT22;28991;52.028;5.526;2023-10-08T11:29:48;21.20;60.40
40289;DHT22;28991;52.028;5.526;2023-10-08T11:32:22;21.20;60.40
40289;DHT22;28991;52.028;5.526;2023-10-08T11:34:55;21.60;60.70
40289;DHT22;28991;52.028;5.526;2023-10-08T11:37:27;21.30;60.50
40289;DHT22;28991;52.028;5.526;2023-10-08T11:39:53;21.20;60.40
40289;DHT22;28991;52.028;5.526;2023-10-08T11:42:23;21.20;60.50
40289;DHT22;28991;52.028;5.526;2023-10-08T11:44:58;21.30;60.50
40289;DHT22;28991;52.028;5.526;2023-10-08T11:47:45;21.20;60.50
40289;DHT22;28991;52.028;5.526;2023-10-08T11:50:14;21.30;60.50
40289;DHT22;28991;52.028;5.526;2023-10-08T11:52:44;21.30;60.60
40289;DHT22;28991;52.028;5.526;2023-10-08T11:55:10;21.30;60.60
40289;DHT22;28991;52.028;5.526;2023-10-08T11:57:40;21.30;60.60
40289;DHT22;28991;52.028;5.526;2023-10-08T12:00:12;21.20;61.10
40289;DHT22;28991;52.028;5.526;2023-10-08T12:02:52;21.30;60.60
40289;DHT22;28991;52.028;5.526;2023-10-08T12:05:21;21.20;60.60
40289;DHT22;28991;52.028;5.526;2023-10-08T12:07:53;21.30;60.60
40289;DHT22;28991;52.028;5.526;2023-10-08T12:10:23;21.50;60.70
40289;DHT22;28991;52.028;5.526;2023-10-08T12:12:50;21.20;60.60
40289;DHT22;28991;52.028;5.526;2023-10-08T12:15:18;21.30;60.70
40289;DHT22;28991;52.028;5.526;2023-10-08T12:17:48;21.30;60.70
40289;DHT22;28991;52.028;5.526;2023-10-08T12:20:33;21.30;60.70
40289;DHT22;28991;52.028;5.526;2023-10-08T12:23:00;21.80;61.00
40289;DHT22;28991;52.028;5.526;2023-10-08T12:25:25;21.30;60.70
40289;DHT22;28991;52.028;5.526;2023-10-08T12:27:51;21.30;60.70
40289;DHT22;28991;52.028;5.526;2023-10-08T12:30:17;21.30;60.70
40289;DHT22;28991;52.028;5.526;2023-10-08T12:32:42;21.20;60.60
40289;DHT22;28991;52.028;5.526;2023-10-08T12:35:11;21.30;60.70
40289;DHT22;28991;52.028;5.526;2023-10-08T12:37:40;21.30;60.70
40289;DHT22;28991;52.028;5.526;2023-10-08T12:40:07;21.30;60.60
40289;DHT22;28991;52.028;5.526;2023-10-08T12:42:56;21.30;60.60
40289;DHT22;28991;52.028;5.526;2023-10-08T12:45:24;21.40;60.60
40289;DHT22;28991;52.028;5.526;2023-10-08T12:47:53;21.40;60.60
40289;DHT22;28991;52.028;5.526;2023-10-08T12:50:21;21.50;60.70
40289;DHT22;28991;52.028;5.526;2023-10-08T12:52:57;21.40;60.50
40289;DHT22;28991;52.028;5.526;2023-10-08T12:55:29;21.40;60.50
40289;DHT22;28991;52.028;5.526;2023-10-08T12:57:56;21.40;60.60
40289;DHT22;28991;52.028;5.526;2023-10-08T13:00:31;21.40;60.60
40289;DHT22;28991;52.028;5.526;2023-10-08T13:02:57;21.40;60.60
40289;DHT22;28991;52.028;5.526;2023-10-08T13:05:23;21.40;60.60
40289;DHT22;28991;52.028;5.526;2023-10-08T13:07:57;21.40;60.60
40289;DHT22;28991;52.028;5.526;2023-10-08T13:10:23;21.40;60.60
40289;DHT22;28991;52.028;5.526;2023-10-08T13:12:49;21.30;60.60
40289;DHT22;28991;52.028;5.526;2023-10-08T13:15:15;21.40;60.60
40289;DHT22;28991;52.028;5.526;2023-10-08T13:17:40;21.40;60.60
40289;DHT22;28991;52.028;5.526;2023-10-08T13:20:09;21.40;60.70
40289;DHT22;28991;52.028;5.526;2023-10-08T13:22:40;21.40;60.60
40289;DHT22;28991;52.028;5.526;2023-10-08T13:25:06;21.40;61.20
40289;DHT22;28991;52.028;5.526;2023-10-08T13:27:32;21.40;60.70
40289;DHT22;28991;52.028;5.526;2023-10-08T13:29:58;21.40;60.70
40289;DHT22;28991;52.028;5.526;2023-10-08T13:32:24;21.40;60.70
40289;DHT22;28991;52.028;5.526;2023-10-08T13:34:50;21.40;60.70
40289;DHT22;28991;52.028;5.526;2023-10-08T13:37:15;21.40;60.70
40289;DHT22;28991;52.028;5.526;2023-10-08T13:39:42;21.40;60.70
40289;DHT22;28991;52.028;5.526;2023-10-08T13:42:07;21.40;60.70
40289;DHT22;28991;52.028;5.526;2023-10-08T13:44:34;21.40;60.70
40289;DHT22;28991;52.028;5.526;2023-10-08T13:47:00;21.40;60.70
40289;DHT22;28991;52.028;5.526;2023-10-08T13:49:31;21.40;60.70
40289;DHT22;28991;52.028;5.526;2023-10-08T13:51:57;21.40;60.60
40289;DHT22;28991;52.028;5.526;2023-10-08T13:54:24;21.50;60.70
40289;DHT22;28991;52.028;5.526;2023-10-08T13:56:56;21.50;60.70
40289;DHT22;28991;52.028;5.526;2023-10-08T13:59:21;21.40;60.70
40289;DHT22;28991;52.028;5.526;2023-10-08T14:01:50;21.40;60.70
40289;DHT22;28991;52.028;5.526;2023-10-08T14:04:20;21.40;60.70
40289;DHT22;28991;52.028;5.526;2023-10-08T14:06:51;21.40;60.70
40289;DHT22;28991;52.028;5.526;2023-10-08T14:09:18;21.40;60.70
40289;DHT22;28991;52.028;5.526;2023-10-08T14:11:50;22.10;61.10
40289;DHT22;28991;52.028;5.526;2023-10-08T14:14:18;21.80;61.00
40289;DHT22;28991;52.028;5.526;2023-10-08T14:16:45;21.40;60.80
40289;DHT22;28991;52.028;5.526;2023-10-08T14:19:17;21.40;60.80
40289;DHT22;28991;52.028;5.526;2023-10-08T14:21:43;21.30;60.80
40289;DHT22;28991;52.028;5.526;2023-10-08T14:24:19;21.40;60.90
40289;DHT22;28991;52.028;5.526;2023-10-08T14:26:46;21.40;60.90
40289;DHT22;28991;52.028;5.526;2023-10-08T14:29:18;21.40;60.90
40289;DHT22;28991;52.028;5.526;2023-10-08T14:31:44;21.40;60.90
40289;DHT22;28991;52.028;5.526;2023-10-08T14:34:14;21.40;60.90
40289;DHT22;28991;52.028;5.526;2023-10-08T14:36:47;21.30;60.90
40289;DHT22;28991;52.028;5.526;2023-10-08T14:39:32;21.20;61.50
40289;DHT22;28991;52.028;5.526;2023-10-08T14:42:17;21.30;60.90
40289;DHT22;28991;52.028;5.526;2023-10-08T14:45:01;21.40;61.00
40289;DHT22;28991;52.028;5.526;2023-10-08T14:47:27;21.30;61.00
40289;DHT22;28991;52.028;5.526;2023-10-08T14:49:53;21.30;61.00
40289;DHT22;28991;52.028;5.526;2023-10-08T14:52:19;21.30;61.00
40289;DHT22;28991;52.028;5.526;2023-10-08T14:54:45;21.30;61.00
40289;DHT22;28991;52.028;5.526;2023-10-08T14:57:12;21.30;61.00
40289;DHT22;28991;52.028;5.526;2023-10-08T14:59:42;21.30;61.00
40289;DHT22;28991;52.028;5.526;2023-10-08T15:02:08;21.30;61.00
40289;DHT22;28991;52.028;5.526;2023-10-08T15:04:36;21.30;61.00
40289;DHT22;28991;52.028;5.526;2023-10-08T15:07:05;21.30;61.10
40289;DHT22;28991;52.028;5.526;2023-10-08T15:09:34;21.20;61.00
40289;DHT22;28991;52.028;5.526;2023-10-08T15:11:59;21.30;61.10
40289;DHT22;28991;52.028;5.526;2023-10-08T15:14:25;21.30;61.10
40289;DHT22;28991;52.028;5.526;2023-10-08T15:16:52;21.30;61.10
40289;DHT22;28991;52.028;5.526;2023-10-08T15:19:24;21.30;61.10
40289;DHT22;28991;52.028;5.526;2023-10-08T15:21:50;21.30;61.10
40289;DHT22;28991;52.028;5.526;2023-10-08T15:24:20;21.30;61.10
40289;DHT22;28991;52.028;5.526;2023-10-08T15:26:50;21.30;61.10
40289;DHT22;28991;52.028;5.526;2023-10-08T15:29:18;21.30;61.10
40289;DHT22;28991;52.028;5.526;2023-10-08T15:31:44;21.30;61.20
40289;DHT22;28991;52.028;5.526;2023-10-08T15:34:11;21.30;61.20
40289;DHT22;28991;52.028;5.526;2023-10-08T15:36:39;21.30;61.20
40289;DHT22;28991;52.028;5.526;2023-10-08T15:39:05;21.20;61.10
40289;DHT22;28991;52.028;5.526;2023-10-08T15:41:31;21.30;61.20
40289;DHT22;28991;52.028;5.526;2023-10-08T15:43:57;21.20;61.20
40289;DHT22;28991;52.028;5.526;2023-10-08T15:46:25;21.20;61.20
40289;DHT22;28991;52.028;5.526;2023-10-08T15:48:53;21.20;61.20
40289;DHT22;28991;52.028;5.526;2023-10-08T15:51:20;21.30;61.30
40289;DHT22;28991;52.028;5.526;2023-10-08T15:53:46;21.20;61.20
40289;DHT22;28991;52.028;5.526;2023-10-08T15:56:11;21.20;61.20
40289;DHT22;28991;52.028;5.526;2023-10-08T15:58:37;21.20;61.30
40289;DHT22;28991;52.028;5.526;2023-10-08T16:01:03;21.20;61.30